Time;durP1;ratioP1;P1;durP2;ratioP2;P2;SDS_P1;SDS_P2;PMS_P1;PMS_P2;Temp;Humidity;BMP_temperature;BMP_pressure;BME280_temperature;BME280_humidity;BME280_pressure;Samples;Min_cycle;Max_cycle;Signal;HPM_P1;HPM_P2
2021/12/26 00:01:09;;;;;;;19.87;11.27;;;;;;;;;;4751392;30;20644;-88
2021/12/26 00:04:14;;;;;;;20.70;11.47;;;;;;;;;;4762288;30;20572;-88
2021/12/26 00:07:18;;;;;;;19.97;12.20;;;;;;;;;;4761949;30;20553;-87
2021/12/26 00:10:24;;;;;;;21.37;11.73;;;;;;;;;;4762637;30;20609;-87
2021/12/26 00:13:30;;;;;;;22.97;12.47;;;;;;;;;;4762472;30;21093;-88
2021/12/26 00:16:34;;;;;;;25.30;12.67;;;;;;;;;;4762096;30;20553;-88
2021/12/26 00:19:38;;;;;;;23.30;12.87;;;;;;;;;;4772651;30;21096;-87
2021/12/26 00:22:43;;;;;;;20.30;12.17;;;;;;;;;;4763071;30;20560;-88
2021/12/26 00:25:48;;;;;;;20.30;12.63;;;;;;;;;;4752818;30;20549;-88
2021/12/26 00:28:53;;;;;;;20.83;12.73;;;;;;;;;;4763088;30;20627;-88
2021/12/26 00:31:58;;;;;;;18.23;11.60;;;;;;;;;;4762237;30;20632;-87
2021/12/26 00:35:03;;;;;;;22.47;13.20;;;;;;;;;;4762301;30;20557;-87
2021/12/26 00:38:07;;;;;;;22.93;13.37;;;;;;;;;;4761780;30;20620;-88
2021/12/26 00:41:11;;;;;;;20.33;12.10;;;;;;;;;;4761566;30;20643;-88
2021/12/26 00:44:15;;;;;;;22.47;12.53;;;;;;;;;;4765027;30;20548;-88
2021/12/26 00:47:20;;;;;;;22.73;13.53;;;;;;;;;;4765305;30;20548;-88
2021/12/26 00:50:29;;;;;;;20.50;12.73;;;;;;;;;;4785540;30;20612;-88
2021/12/26 00:53:34;;;;;;;22.60;12.83;;;;;;;;;;4765435;30;20556;-87
2021/12/26 00:56:38;;;;;;;22.00;14.37;;;;;;;;;;4764854;30;20556;-87
2021/12/26 00:59:42;;;;;;;24.57;14.10;;;;;;;;;;4765039;30;20548;-88
2021/12/26 01:02:48;;;;;;;26.43;14.93;;;;;;;;;;4765119;30;20548;-88
2021/12/26 01:05:56;;;;;;;23.70;15.23;;;;;;;;;;4754713;30;20630;-88
2021/12/26 01:09:03;;;;;;;24.07;15.37;;;;;;;;;;4754379;30;20565;-88
2021/12/26 01:12:13;;;;;;;23.33;13.57;;;;;;;;;;4764677;30;20675;-88
2021/12/26 01:15:22;;;;;;;22.53;14.37;;;;;;;;;;4765012;30;20564;-88
2021/12/26 01:18:31;;;;;;;23.50;14.00;;;;;;;;;;4764686;30;20553;-88
2021/12/26 01:21:36;;;;;;;23.33;13.53;;;;;;;;;;4764344;30;21229;-88
2021/12/26 01:24:48;;;;;;;24.87;15.50;;;;;;;;;;4765333;30;21137;-87
2021/12/26 01:27:53;;;;;;;21.10;13.03;;;;;;;;;;4763482;30;21018;-89
2021/12/26 01:30:57;;;;;;;19.87;13.47;;;;;;;;;;4763419;30;20671;-88
2021/12/26 01:34:06;;;;;;;20.73;13.90;;;;;;;;;;4763576;30;20569;-89
2021/12/26 01:37:29;;;;;;;19.33;12.43;;;;;;;;;;4786504;29;20560;-88
2021/12/26 01:40:57;;;;;;;19.23;12.07;;;;;;;;;;4758900;30;20655;-88
2021/12/26 01:44:27;;;;;;;17.03;11.50;;;;;;;;;;4766545;30;20581;-89
2021/12/26 01:47:33;;;;;;;17.10;11.93;;;;;;;;;;4764196;30;20565;-88
2021/12/26 01:50:39;;;;;;;17.07;11.83;;;;;;;;;;4763223;30;20701;-89
2021/12/26 01:53:43;;;;;;;15.60;11.03;;;;;;;;;;4783207;30;20557;-90
2021/12/26 01:56:47;;;;;;;16.83;11.63;;;;;;;;;;4782621;30;20578;-90
2021/12/26 01:59:52;;;;;;;16.90;11.67;;;;;;;;;;4780620;30;20604;-90
2021/12/26 02:03:20;;;;;;;16.23;11.07;;;;;;;;;;4771701;30;20611;-90
2021/12/26 02:06:24;;;;;;;15.00;10.93;;;;;;;;;;4761644;30;20580;-90
2021/12/26 02:09:29;;;;;;;13.50;10.47;;;;;;;;;;4771663;30;20568;-90
2021/12/26 02:12:35;;;;;;;14.70;9.97;;;;;;;;;;4762329;30;20549;-90
2021/12/26 02:15:40;;;;;;;13.73;9.70;;;;;;;;;;4761594;30;20962;-90
2021/12/26 02:18:50;;;;;;;13.33;10.20;;;;;;;;;;4771713;30;21116;-90
2021/12/26 02:22:10;;;;;;;12.80;9.07;;;;;;;;;;4771404;30;20656;-90
2021/12/26 02:28:20;;;;;;;11.23;8.73;;;;;;;;;;4781795;30;20564;-91
2021/12/26 02:31:24;;;;;;;13.47;9.27;;;;;;;;;;4763628;30;20665;-90
2021/12/26 02:34:29;;;;;;;13.47;9.13;;;;;;;;;;4743683;30;20569;-90
2021/12/26 02:37:34;;;;;;;13.13;9.53;;;;;;;;;;4738395;30;20603;-90
2021/12/26 02:40:39;;;;;;;13.00;9.13;;;;;;;;;;4781416;30;20643;-90
2021/12/26 02:43:44;;;;;;;11.57;8.87;;;;;;;;;;4781643;30;20560;-90
2021/12/26 02:46:48;;;;;;;13.70;9.33;;;;;;;;;;4743485;30;20546;-90
2021/12/26 02:49:52;;;;;;;11.30;8.60;;;;;;;;;;4753435;30;20911;-90
2021/12/26 02:52:59;;;;;;;13.20;8.97;;;;;;;;;;4743392;30;20550;-90
2021/12/26 02:56:05;;;;;;;12.93;9.23;;;;;;;;;;4743481;30;20554;-91
2021/12/26 02:59:09;;;;;;;13.53;9.37;;;;;;;;;;4743139;30;20576;-90
2021/12/26 03:02:13;;;;;;;13.83;9.37;;;;;;;;;;4773476;29;20648;-90
2021/12/26 03:05:19;;;;;;;12.73;9.07;;;;;;;;;;4742731;30;20592;-90
2021/12/26 03:08:23;;;;;;;14.03;9.50;;;;;;;;;;4753172;30;20569;-90
2021/12/26 03:11:28;;;;;;;12.73;8.90;;;;;;;;;;4743107;30;20664;-90
2021/12/26 03:14:32;;;;;;;12.70;9.17;;;;;;;;;;4742947;30;20573;-90
2021/12/26 03:17:37;;;;;;;13.07;9.00;;;;;;;;;;4742920;30;21082;-91
2021/12/26 03:20:45;;;;;;;11.63;9.20;;;;;;;;;;4752752;30;20629;-90
2021/12/26 03:23:49;;;;;;;12.90;9.23;;;;;;;;;;4752694;30;20573;-90
2021/12/26 03:27:04;;;;;;;13.67;8.70;;;;;;;;;;4743294;30;20566;-91
2021/12/26 03:30:11;;;;;;;13.07;9.03;;;;;;;;;;4742494;30;20617;-90
2021/12/26 03:33:17;;;;;;;12.73;8.80;;;;;;;;;;4756435;30;20934;-91
2021/12/26 03:36:21;;;;;;;11.00;8.70;;;;;;;;;;4760431;30;20552;-90
2021/12/26 03:39:25;;;;;;;12.20;8.90;;;;;;;;;;4780529;30;20560;-90
2021/12/26 03:42:31;;;;;;;13.40;8.73;;;;;;;;;;4780359;30;20655;-90
2021/12/26 03:45:36;;;;;;;12.50;8.40;;;;;;;;;;4780414;30;20561;-91
2021/12/26 03:48:40;;;;;;;12.17;8.77;;;;;;;;;;4780378;30;20564;-90
2021/12/26 03:51:44;;;;;;;10.80;8.43;;;;;;;;;;4780195;30;20683;-90
2021/12/26 03:54:51;;;;;;;12.20;8.57;;;;;;;;;;4760120;30;20557;-90
2021/12/26 03:57:56;;;;;;;12.23;8.90;;;;;;;;;;4759882;30;20573;-90
2021/12/26 04:01:00;;;;;;;13.93;8.93;;;;;;;;;;4759495;30;20663;-90
2021/12/26 04:04:06;;;;;;;12.73;8.67;;;;;;;;;;4762330;30;20605;-90
2021/12/26 04:07:11;;;;;;;12.20;8.90;;;;;;;;;;4752280;30;20570;-90
2021/12/26 04:10:17;;;;;;;12.17;8.23;;;;;;;;;;4742283;30;20549;-91
2021/12/26 04:13:21;;;;;;;12.03;8.77;;;;;;;;;;4762365;30;20608;-90
2021/12/26 04:16:25;;;;;;;9.20;7.10;;;;;;;;;;4769717;30;20623;-90
2021/12/26 04:19:30;;;;;;;8.63;7.37;;;;;;;;;;4759993;30;20549;-90
2021/12/26 04:22:35;;;;;;;10.23;7.07;;;;;;;;;;4759503;30;20565;-91
2021/12/26 04:25:41;;;;;;;8.70;7.50;;;;;;;;;;4759648;30;20560;-91
2021/12/26 04:28:46;;;;;;;10.53;7.63;;;;;;;;;;4780025;29;20620;-91
2021/12/26 04:31:51;;;;;;;8.03;6.73;;;;;;;;;;4779805;29;21215;-90
2021/12/26 04:34:56;;;;;;;9.80;7.33;;;;;;;;;;4751582;30;20899;-90
2021/12/26 04:38:00;;;;;;;9.33;7.47;;;;;;;;;;4762390;30;21121;-90
2021/12/26 04:41:05;;;;;;;9.83;7.57;;;;;;;;;;4766848;30;20660;-90
2021/12/26 04:44:34;;;;;;;9.00;7.07;;;;;;;;;;4757719;30;20973;-90
2021/12/26 04:48:04;;;;;;;10.50;7.00;;;;;;;;;;4758545;30;20676;-90
2021/12/26 04:51:13;;;;;;;9.97;7.23;;;;;;;;;;4759095;30;20679;-90
2021/12/26 04:54:17;;;;;;;7.00;6.30;;;;;;;;;;4769405;30;21108;-91
2021/12/26 04:57:21;;;;;;;9.07;6.67;;;;;;;;;;4769439;30;20565;-90
2021/12/26 05:00:29;;;;;;;10.43;7.50;;;;;;;;;;4769106;30;20635;-90
2021/12/26 05:03:33;;;;;;;8.67;7.03;;;;;;;;;;4770885;30;20553;-88
2021/12/26 05:06:38;;;;;;;8.30;6.67;;;;;;;;;;4770034;30;20616;-89
2021/12/26 05:09:45;;;;;;;8.90;7.17;;;;;;;;;;4770139;30;20620;-89
2021/12/26 05:12:49;;;;;;;8.63;6.80;;;;;;;;;;4769868;30;20664;-89
2021/12/26 05:15:53;;;;;;;9.23;7.43;;;;;;;;;;4770335;30;20615;-89
2021/12/26 05:18:58;;;;;;;8.80;6.70;;;;;;;;;;4770129;30;20611;-88
2021/12/26 05:22:02;;;;;;;10.40;7.17;;;;;;;;;;4769977;30;20644;-88
2021/12/26 05:25:08;;;;;;;9.17;6.50;;;;;;;;;;4770825;30;21085;-88
2021/12/26 05:28:12;;;;;;;9.47;7.07;;;;;;;;;;4770446;30;20914;-88
2021/12/26 05:31:17;;;;;;;10.70;7.30;;;;;;;;;;4773510;30;20636;-88
2021/12/26 05:34:22;;;;;;;9.83;6.77;;;;;;;;;;4772817;30;20564;-90
2021/12/26 05:37:26;;;;;;;8.47;7.20;;;;;;;;;;4772822;30;20556;-89
2021/12/26 05:40:30;;;;;;;9.67;7.07;;;;;;;;;;4772634;30;20651;-89
2021/12/26 05:43:35;;;;;;;8.33;6.57;;;;;;;;;;4772574;30;20604;-88
2021/12/26 05:46:39;;;;;;;9.73;7.17;;;;;;;;;;4772794;30;20619;-88
2021/12/26 05:49:43;;;;;;;9.23;7.40;;;;;;;;;;4772866;30;20552;-88
2021/12/26 05:52:51;;;;;;;10.67;7.53;;;;;;;;;;4771936;30;20608;-89
2021/12/26 05:55:56;;;;;;;9.33;6.90;;;;;;;;;;4772481;30;20615;-89
2021/12/26 05:59:00;;;;;;;9.80;7.57;;;;;;;;;;4772428;30;20557;-88
2021/12/26 06:02:05;;;;;;;9.93;7.07;;;;;;;;;;4771722;30;20643;-88
2021/12/26 06:05:12;;;;;;;8.03;6.23;;;;;;;;;;4771981;30;20972;-88
2021/12/26 06:08:17;;;;;;;8.23;7.00;;;;;;;;;;4764238;30;20640;-88
2021/12/26 06:11:21;;;;;;;10.13;7.60;;;;;;;;;;4754466;30;20636;-89
2021/12/26 06:14:26;;;;;;;9.87;7.30;;;;;;;;;;4754153;30;20554;-89
2021/12/26 06:17:30;;;;;;;9.63;7.47;;;;;;;;;;4754093;30;20549;-88
2021/12/26 06:20:55;;;;;;;10.90;7.13;;;;;;;;;;4751940;30;20668;-89
2021/12/26 06:24:17;;;;;;;9.43;6.93;;;;;;;;;;4772225;30;20554;-89
2021/12/26 06:27:40;;;;;;;10.07;7.40;;;;;;;;;;4772294;30;20562;-88
2021/12/26 06:31:19;;;;;;;9.60;6.97;;;;;;;;;;4759638;30;20640;-89
2021/12/26 06:34:42;;;;;;;10.00;7.37;;;;;;;;;;4771871;30;20574;-89
2021/12/26 06:38:04;;;;;;;9.30;7.23;;;;;;;;;;4766378;30;20562;-89
2021/12/26 06:41:27;;;;;;;8.93;7.07;;;;;;;;;;4771553;29;21212;-89
2021/12/26 06:45:08;;;;;;;9.63;6.87;;;;;;;;;;4763418;30;20577;-89
2021/12/26 06:48:38;;;;;;;9.70;7.03;;;;;;;;;;4762170;30;20635;-89
2021/12/26 06:51:45;;;;;;;11.97;7.63;;;;;;;;;;4770934;30;20644;-89
2021/12/26 06:54:49;;;;;;;10.77;7.70;;;;;;;;;;4770947;30;20561;-89
2021/12/26 06:57:54;;;;;;;9.63;7.20;;;;;;;;;;4771114;30;20561;-90
2021/12/26 07:00:59;;;;;;;10.00;7.30;;;;;;;;;;4771027;30;20647;-88
2021/12/26 07:04:03;;;;;;;10.97;7.63;;;;;;;;;;4760835;30;20616;-89
2021/12/26 07:07:08;;;;;;;8.60;6.70;;;;;;;;;;4770902;30;20612;-89
2021/12/26 07:10:13;;;;;;;10.07;7.40;;;;;;;;;;4770733;30;20620;-90
2021/12/26 07:13:17;;;;;;;10.43;7.20;;;;;;;;;;4770703;30;20660;-90
2021/12/26 07:16:25;;;;;;;10.37;7.20;;;;;;;;;;4751129;30;20564;-88
2021/12/26 07:19:30;;;;;;;9.10;6.80;;;;;;;;;;4770863;30;20568;-90
2021/12/26 07:22:43;;;;;;;11.33;7.97;;;;;;;;;;4761470;30;20561;-90
2021/12/26 07:25:50;;;;;;;12.20;8.43;;;;;;;;;;4771061;30;20553;-90
2021/12/26 07:28:55;;;;;;;9.20;7.17;;;;;;;;;;4760690;30;20552;-90
2021/12/26 07:32:02;;;;;;;9.70;7.83;;;;;;;;;;4770487;30;20667;-90
2021/12/26 07:35:10;;;;;;;9.97;7.57;;;;;;;;;;4770166;30;20573;-89
2021/12/26 07:38:21;;;;;;;11.93;7.73;;;;;;;;;;4780286;30;20553;-90
2021/12/26 07:41:25;;;;;;;11.77;8.30;;;;;;;;;;4770316;30;20643;-90
2021/12/26 07:44:31;;;;;;;10.40;7.37;;;;;;;;;;4760143;30;20561;-90
2021/12/26 07:47:41;;;;;;;10.27;7.40;;;;;;;;;;4760526;30;20616;-89
2021/12/26 07:50:45;;;;;;;9.97;7.70;;;;;;;;;;4780863;29;21199;-90
2021/12/26 07:54:08;;;;;;;10.30;7.50;;;;;;;;;;4769732;30;20628;-89
2021/12/26 07:57:31;;;;;;;9.87;7.20;;;;;;;;;;4763205;30;20584;-90
2021/12/26 08:01:13;;;;;;;10.60;7.23;;;;;;;;;;4746432;30;20676;-91
2021/12/26 08:04:48;;;;;;;10.47;7.50;;;;;;;;;;4734426;30;20635;-90
2021/12/26 08:08:15;;;;;;;10.73;7.57;;;;;;;;;;4777652;30;20564;-90
2021/12/26 08:11:19;;;;;;;11.57;7.77;;;;;;;;;;4760087;30;20636;-90
2021/12/26 08:14:23;;;;;;;9.93;7.17;;;;;;;;;;4759707;30;20557;-89
2021/12/26 08:17:29;;;;;;;9.50;7.23;;;;;;;;;;4780012;30;20985;-90
2021/12/26 08:20:33;;;;;;;9.70;7.23;;;;;;;;;;4759950;30;20644;-88
2021/12/26 08:23:37;;;;;;;9.57;6.57;;;;;;;;;;4759824;30;20556;-89
2021/12/26 08:26:41;;;;;;;9.57;7.07;;;;;;;;;;4780317;30;20556;-89
2021/12/26 08:29:48;;;;;;;10.20;7.77;;;;;;;;;;4771183;30;20553;-90
2021/12/26 08:32:54;;;;;;;10.57;7.73;;;;;;;;;;4760340;30;21168;-88
2021/12/26 08:35:59;;;;;;;11.60;8.07;;;;;;;;;;4759632;30;20552;-90
2021/12/26 08:39:03;;;;;;;10.30;8.10;;;;;;;;;;4769862;30;20549;-90
2021/12/26 08:42:09;;;;;;;12.37;7.90;;;;;;;;;;4779895;30;20635;-90
2021/12/26 08:45:13;;;;;;;10.97;7.47;;;;;;;;;;4779936;30;20553;-91
2021/12/26 08:48:18;;;;;;;10.20;7.17;;;;;;;;;;4779538;30;20632;-92
2021/12/26 08:51:22;;;;;;;10.73;8.17;;;;;;;;;;4780106;30;20640;-92
2021/12/26 08:54:28;;;;;;;8.77;7.07;;;;;;;;;;4779850;30;20612;-91
2021/12/26 08:57:32;;;;;;;13.30;7.77;;;;;;;;;;4759889;30;20556;-90
2021/12/26 09:00:37;;;;;;;13.03;8.37;;;;;;;;;;4761328;30;20651;-91
2021/12/26 09:03:41;;;;;;;10.83;7.57;;;;;;;;;;4780924;30;20556;-90
2021/12/26 09:06:45;;;;;;;9.97;7.13;;;;;;;;;;4772899;30;20560;-90
2021/12/26 09:09:49;;;;;;;10.03;6.90;;;;;;;;;;4762545;30;20628;-91
2021/12/26 09:12:55;;;;;;;8.90;7.10;;;;;;;;;;4763005;30;20659;-90
2021/12/26 09:15:59;;;;;;;10.23;7.70;;;;;;;;;;4762655;30;20897;-90
2021/12/26 09:19:05;;;;;;;12.77;8.43;;;;;;;;;;4762750;30;20549;-90
2021/12/26 09:22:15;;;;;;;9.20;6.93;;;;;;;;;;4762341;30;20643;-90
2021/12/26 09:25:19;;;;;;;11.00;6.63;;;;;;;;;;4762411;30;20548;-90
2021/12/26 09:28:25;;;;;;;9.10;6.20;;;;;;;;;;4762392;30;20564;-90
2021/12/26 09:31:29;;;;;;;9.70;7.23;;;;;;;;;;4762536;30;20965;-90
2021/12/26 09:34:34;;;;;;;10.07;6.77;;;;;;;;;;4762818;30;20965;-88
2021/12/26 09:37:38;;;;;;;8.73;6.23;;;;;;;;;;4752027;30;21115;-90
2021/12/26 09:41:37;;;;;;;12.60;6.43;;;;;;;;;;4762369;30;20643;-90
2021/12/26 09:44:41;;;;;;;9.33;6.77;;;;;;;;;;4762239;30;20569;-89
2021/12/26 09:47:50;;;;;;;10.03;6.80;;;;;;;;;;4761817;30;20611;-90
2021/12/26 09:50:54;;;;;;;8.30;6.30;;;;;;;;;;4762131;30;20644;-90
2021/12/26 09:53:59;;;;;;;8.67;6.57;;;;;;;;;;4762179;30;20604;-89
2021/12/26 09:57:03;;;;;;;10.33;7.20;;;;;;;;;;4761923;30;20560;-90
2021/12/26 10:00:19;;;;;;;9.70;6.80;;;;;;;;;;4761889;30;20560;-90
2021/12/26 10:03:35;;;;;;;9.97;7.47;;;;;;;;;;4761865;30;20557;-90
2021/12/26 10:06:40;;;;;;;18.63;11.17;;;;;;;;;;4751479;30;20619;-90
2021/12/26 10:09:47;;;;;;;10.90;8.07;;;;;;;;;;4761933;30;20553;-90
2021/12/26 10:12:51;;;;;;;11.57;7.87;;;;;;;;;;4761786;30;20605;-89
2021/12/26 10:15:55;;;;;;;10.63;8.00;;;;;;;;;;4760979;30;20898;-89
2021/12/26 10:19:03;;;;;;;14.80;9.03;;;;;;;;;;4761574;30;20553;-89
2021/12/26 10:22:10;;;;;;;11.00;7.30;;;;;;;;;;4751678;30;20996;-90
2021/12/26 10:25:15;;;;;;;12.73;8.23;;;;;;;;;;4763004;30;20548;-92
2021/12/26 10:28:20;;;;;;;12.63;8.63;;;;;;;;;;4763556;30;20612;-91
2021/12/26 10:31:24;;;;;;;11.60;7.87;;;;;;;;;;4763000;30;20643;-92
2021/12/26 10:34:36;;;;;;;12.90;8.20;;;;;;;;;;4762823;30;20612;-89
2021/12/26 10:37:50;;;;;;;13.30;8.13;;;;;;;;;;4762255;30;20576;-92
2021/12/26 10:40:54;;;;;;;14.20;8.17;;;;;;;;;;4761300;30;20640;-89
2021/12/26 10:43:58;;;;;;;12.97;7.87;;;;;;;;;;4762052;30;20616;-89
2021/12/26 10:47:08;;;;;;;17.20;9.53;;;;;;;;;;4771877;30;20553;-89
2021/12/26 10:50:19;;;;;;;15.43;8.83;;;;;;;;;;4761607;30;20557;-90
2021/12/26 10:53:24;;;;;;;23.30;13.27;;;;;;;;;;4762739;30;20616;-90
2021/12/26 10:56:28;;;;;;;15.73;9.97;;;;;;;;;;4761038;30;20917;-89
2021/12/26 10:59:32;;;;;;;23.27;12.77;;;;;;;;;;4761296;30;20568;-92
2021/12/26 11:02:37;;;;;;;14.93;9.43;;;;;;;;;;4761910;30;20633;-91
2021/12/26 11:05:47;;;;;;;15.30;10.30;;;;;;;;;;4761255;30;20573;-91
2021/12/26 11:09:21;;;;;;;17.83;10.57;;;;;;;;;;4762266;30;20604;-92
2021/12/26 11:12:37;;;;;;;17.27;9.93;;;;;;;;;;4762591;30;20636;-91
2021/12/26 11:15:42;;;;;;;16.47;10.77;;;;;;;;;;4762979;30;20549;-89
2021/12/26 11:18:54;;;;;;;18.63;10.43;;;;;;;;;;4752891;30;20557;-89
2021/12/26 11:21:59;;;;;;;18.60;10.57;;;;;;;;;;4753075;30;20651;-90
2021/12/26 11:25:05;;;;;;;17.60;10.23;;;;;;;;;;4762764;30;20620;-90
2021/12/26 11:28:12;;;;;;;17.87;11.07;;;;;;;;;;4763245;30;20549;-90
2021/12/26 11:31:26;;;;;;;19.27;11.00;;;;;;;;;;4762494;30;20639;-91
2021/12/26 11:34:31;;;;;;;17.53;10.37;;;;;;;;;;4761665;30;20624;-91
2021/12/26 11:37:37;;;;;;;17.20;10.17;;;;;;;;;;4761260;30;20938;-92
2021/12/26 11:41:04;;;;;;;13.50;9.27;;;;;;;;;;4765627;30;20676;-91
2021/12/26 11:44:54;;;;;;;16.33;10.00;;;;;;;;;;4758417;30;20627;-91
2021/12/26 11:48:41;;;;;;;17.43;10.83;;;;;;;;;;4770161;30;20564;-92
2021/12/26 11:52:37;;;;;;;16.40;9.97;;;;;;;;;;4762315;30;20639;-90
2021/12/26 11:56:46;;;;;;;16.03;10.73;;;;;;;;;;4777223;30;20845;-89
2021/12/26 12:00:10;;;;;;;16.30;10.60;;;;;;;;;;4759977;30;20545;-89
2021/12/26 12:03:20;;;;;;;16.87;9.83;;;;;;;;;;4770097;30;20553;-90
2021/12/26 12:06:27;;;;;;;16.00;9.90;;;;;;;;;;4759928;30;20553;-91
2021/12/26 12:09:34;;;;;;;15.83;9.97;;;;;;;;;;4759830;30;20560;-90
2021/12/26 12:12:42;;;;;;;15.23;9.50;;;;;;;;;;4759852;30;20557;-91
2021/12/26 12:15:49;;;;;;;15.07;10.07;;;;;;;;;;4759857;30;20553;-91
2021/12/26 12:19:00;;;;;;;16.13;10.20;;;;;;;;;;4759805;30;20553;-90
2021/12/26 12:22:05;;;;;;;13.17;8.53;;;;;;;;;;4759565;30;20644;-90
2021/12/26 12:25:34;;;;;;;14.70;9.13;;;;;;;;;;4790466;29;20615;-90
2021/12/26 12:28:43;;;;;;;15.30;9.17;;;;;;;;;;4780212;30;20544;-90
2021/12/26 12:31:47;;;;;;;14.90;9.53;;;;;;;;;;4779846;30;20640;-91
2021/12/26 12:35:06;;;;;;;13.97;9.53;;;;;;;;;;4759403;30;20612;-90
2021/12/26 12:38:26;;;;;;;14.87;9.00;;;;;;;;;;4759878;30;20557;-91
2021/12/26 12:41:35;;;;;;;14.80;8.87;;;;;;;;;;4763290;30;20977;-91
2021/12/26 12:44:44;;;;;;;16.43;9.57;;;;;;;;;;4783820;30;20549;-91
2021/12/26 12:47:48;;;;;;;15.63;9.70;;;;;;;;;;4783910;30;20565;-88
2021/12/26 12:50:57;;;;;;;13.10;8.57;;;;;;;;;;4763291;30;20635;-91
2021/12/26 12:54:18;;;;;;;13.27;8.33;;;;;;;;;;4773761;30;20612;-90
2021/12/26 12:57:35;;;;;;;13.70;9.13;;;;;;;;;;4773235;30;20553;-89
2021/12/26 13:00:41;;;;;;;15.13;9.00;;;;;;;;;;4762709;30;20659;-90
2021/12/26 13:03:45;;;;;;;13.90;9.07;;;;;;;;;;4763247;30;20545;-89
2021/12/26 13:07:05;;;;;;;13.00;8.43;;;;;;;;;;4783502;30;20557;-89
2021/12/26 13:10:13;;;;;;;19.83;12.10;;;;;;;;;;4772905;30;20608;-89
2021/12/26 13:13:20;;;;;;;15.43;10.77;;;;;;;;;;4772813;30;20548;-89
2021/12/26 13:16:31;;;;;;;13.53;9.33;;;;;;;;;;4752790;30;20549;-89
2021/12/26 13:19:35;;;;;;;14.53;10.43;;;;;;;;;;4783087;30;20612;-91
2021/12/26 13:22:42;;;;;;;14.30;9.70;;;;;;;;;;4776480;30;20558;-92
2021/12/26 13:25:48;;;;;;;17.33;9.70;;;;;;;;;;4755217;30;21105;-90
2021/12/26 13:28:52;;;;;;;16.43;9.50;;;;;;;;;;4754950;30;20549;-90
2021/12/26 13:31:56;;;;;;;13.63;8.43;;;;;;;;;;4764950;30;20628;-91
2021/12/26 13:35:01;;;;;;;15.67;11.00;;;;;;;;;;4765269;30;21185;-88
2021/12/26 13:38:07;;;;;;;13.40;9.43;;;;;;;;;;4755402;30;20565;-91
2021/12/26 13:41:13;;;;;;;14.60;10.20;;;;;;;;;;4754254;30;20636;-90
2021/12/26 13:44:19;;;;;;;14.70;9.83;;;;;;;;;;4746174;30;20612;-89
2021/12/26 13:47:23;;;;;;;15.43;9.83;;;;;;;;;;4768796;30;20632;-91
2021/12/26 13:50:28;;;;;;;16.70;10.40;;;;;;;;;;4754670;30;20979;-90
2021/12/26 13:53:36;;;;;;;17.07;10.80;;;;;;;;;;4765503;30;20616;-88
2021/12/26 13:57:06;;;;;;;16.60;10.53;;;;;;;;;;4765489;30;20561;-88
2021/12/26 14:00:12;;;;;;;15.63;10.03;;;;;;;;;;4755623;30;20582;-89
2021/12/26 14:03:22;;;;;;;15.90;10.50;;;;;;;;;;4744712;30;20562;-88
2021/12/26 14:06:28;;;;;;;14.63;10.20;;;;;;;;;;4754354;30;20613;-88
2021/12/26 14:09:41;;;;;;;16.17;10.60;;;;;;;;;;4754642;30;20621;-88
2021/12/26 14:12:54;;;;;;;18.90;11.40;;;;;;;;;;4754381;30;20558;-89
2021/12/26 14:16:01;;;;;;;16.23;11.30;;;;;;;;;;4754195;30;20978;-89
2021/12/26 14:19:09;;;;;;;16.00;10.77;;;;;;;;;;4764062;30;20565;-89
2021/12/26 14:22:13;;;;;;;17.00;11.00;;;;;;;;;;4753737;30;20644;-88
2021/12/26 14:25:17;;;;;;;17.13;11.03;;;;;;;;;;4754177;30;21129;-89
2021/12/26 14:28:23;;;;;;;16.93;10.97;;;;;;;;;;4753971;30;21116;-88
2021/12/26 14:31:45;;;;;;;16.70;10.80;;;;;;;;;;4754068;30;20645;-88
2021/12/26 14:34:49;;;;;;;15.03;10.60;;;;;;;;;;4754324;30;20617;-89
2021/12/26 14:38:13;;;;;;;15.30;10.57;;;;;;;;;;4744838;30;20561;-88
2021/12/26 14:41:17;;;;;;;17.40;10.93;;;;;;;;;;4754080;30;20645;-88
2021/12/26 14:44:26;;;;;;;15.23;10.33;;;;;;;;;;4753906;30;20554;-88
2021/12/26 14:47:42;;;;;;;15.83;10.77;;;;;;;;;;4753738;30;20918;-88
2021/12/26 14:50:47;;;;;;;13.13;9.20;;;;;;;;;;4753469;30;20648;-89
2021/12/26 14:54:02;;;;;;;15.13;9.37;;;;;;;;;;4763780;30;21102;-88
2021/12/26 14:57:08;;;;;;;16.77;10.50;;;;;;;;;;4753908;30;20557;-89
2021/12/26 15:00:16;;;;;;;14.97;9.63;;;;;;;;;;4753110;30;20966;-90
2021/12/26 15:03:26;;;;;;;13.97;10.10;;;;;;;;;;4753542;30;20554;-89
2021/12/26 15:06:31;;;;;;;13.27;9.57;;;;;;;;;;4754618;30;20557;-88
2021/12/26 15:09:53;;;;;;;13.77;9.90;;;;;;;;;;4753785;30;20562;-89
2021/12/26 15:12:58;;;;;;;15.63;10.27;;;;;;;;;;4753412;30;20558;-89
2021/12/26 15:16:03;;;;;;;16.63;10.83;;;;;;;;;;4753443;30;20968;-86
2021/12/26 15:19:07;;;;;;;17.27;11.43;;;;;;;;;;4753784;30;20550;-88
2021/12/26 15:22:11;;;;;;;16.83;10.87;;;;;;;;;;4753661;30;20648;-87
2021/12/26 15:25:33;;;;;;;17.40;11.17;;;;;;;;;;4753506;30;20625;-88
2021/12/26 15:28:47;;;;;;;18.73;11.50;;;;;;;;;;4753540;30;20553;-88
2021/12/26 15:31:51;;;;;;;18.90;12.20;;;;;;;;;;4753778;30;20628;-87
2021/12/26 15:34:55;;;;;;;18.30;12.03;;;;;;;;;;4753618;30;20609;-87
2021/12/26 15:37:59;;;;;;;20.87;12.33;;;;;;;;;;4743375;30;20553;-87
2021/12/26 15:41:04;;;;;;;19.47;12.17;;;;;;;;;;4753729;30;20660;-87
2021/12/26 15:44:09;;;;;;;22.13;12.60;;;;;;;;;;4752742;30;20553;-88
2021/12/26 15:47:16;;;;;;;19.30;12.10;;;;;;;;;;4752703;30;20562;-88
2021/12/26 15:50:20;;;;;;;19.40;11.80;;;;;;;;;;4752462;30;20569;-87
2021/12/26 15:53:24;;;;;;;19.80;12.20;;;;;;;;;;4753212;30;20569;-87
2021/12/26 15:56:29;;;;;;;19.87;12.70;;;;;;;;;;4762763;30;20613;-87
2021/12/26 15:59:34;;;;;;;19.63;12.63;;;;;;;;;;4759857;30;20600;-87
2021/12/26 16:02:38;;;;;;;20.33;12.73;;;;;;;;;;4760048;30;20560;-87
2021/12/26 16:05:45;;;;;;;18.73;12.30;;;;;;;;;;4770347;30;20601;-89
2021/12/26 16:08:49;;;;;;;19.63;12.57;;;;;;;;;;4749975;30;20672;-88
2021/12/26 16:11:53;;;;;;;19.90;12.23;;;;;;;;;;4769814;30;20639;-87
2021/12/26 16:14:58;;;;;;;17.77;11.53;;;;;;;;;;4769706;30;20620;-87
2021/12/26 16:18:02;;;;;;;18.93;12.10;;;;;;;;;;4771463;30;21119;-86
2021/12/26 16:21:06;;;;;;;19.67;12.37;;;;;;;;;;4770804;30;20635;-88
2021/12/26 16:24:10;;;;;;;20.37;11.90;;;;;;;;;;4759656;30;20568;-88
2021/12/26 16:27:15;;;;;;;20.20;12.33;;;;;;;;;;4759835;30;20549;-89
2021/12/26 16:30:21;;;;;;;20.70;12.80;;;;;;;;;;4759786;30;20565;-89
2021/12/26 16:33:25;;;;;;;21.23;12.77;;;;;;;;;;4759645;30;20565;-88
2021/12/26 16:36:30;;;;;;;19.60;12.17;;;;;;;;;;4749678;30;20624;-89
2021/12/26 16:39:34;;;;;;;19.27;12.50;;;;;;;;;;4769439;30;20557;-88
2021/12/26 16:42:43;;;;;;;19.70;12.70;;;;;;;;;;4759842;30;20623;-89
2021/12/26 16:45:47;;;;;;;21.43;13.37;;;;;;;;;;4759656;30;20605;-89
2021/12/26 16:48:52;;;;;;;19.43;12.50;;;;;;;;;;4760613;30;20616;-88
2021/12/26 16:51:56;;;;;;;21.20;13.60;;;;;;;;;;4759544;30;20648;-88
2021/12/26 16:55:00;;;;;;;20.67;12.57;;;;;;;;;;4759225;30;20612;-88
2021/12/26 16:58:06;;;;;;;22.43;13.27;;;;;;;;;;4749132;30;20608;-88
2021/12/26 17:01:10;;;;;;;20.83;12.63;;;;;;;;;;4759070;30;20660;-89
2021/12/26 17:05:04;;;;;;;22.40;12.90;;;;;;;;;;4760015;30;20572;-91
2021/12/26 17:08:08;;;;;;;22.40;13.33;;;;;;;;;;4759231;30;20557;-90
2021/12/26 17:11:12;;;;;;;21.37;13.23;;;;;;;;;;4769673;30;20635;-91
2021/12/26 17:14:17;;;;;;;23.77;13.57;;;;;;;;;;4759447;30;20919;-91
2021/12/26 17:17:20;;;;;;;22.00;13.07;;;;;;;;;;4769474;30;20557;-91
2021/12/26 17:20:25;;;;;;;27.03;13.77;;;;;;;;;;4748949;30;21151;-91
2021/12/26 17:23:29;;;;;;;22.83;13.77;;;;;;;;;;4759355;30;20556;-91
2021/12/26 17:26:35;;;;;;;22.50;13.23;;;;;;;;;;4762601;30;20552;-91
2021/12/26 17:29:39;;;;;;;21.23;13.03;;;;;;;;;;4782634;30;20615;-91
2021/12/26 17:32:46;;;;;;;23.07;13.43;;;;;;;;;;4792893;29;20603;-91
2021/12/26 17:35:53;;;;;;;25.37;13.60;;;;;;;;;;4772406;30;20667;-92
2021/12/26 17:38:57;;;;;;;23.53;13.97;;;;;;;;;;4796882;29;20552;-92
2021/12/26 17:42:02;;;;;;;23.10;13.37;;;;;;;;;;4762000;30;20643;-92
2021/12/26 17:45:07;;;;;;;23.80;13.23;;;;;;;;;;4762108;30;20560;-92
2021/12/26 17:48:11;;;;;;;20.93;13.53;;;;;;;;;;4762314;30;20545;-91
2021/12/26 17:51:15;;;;;;;25.40;13.53;;;;;;;;;;4772322;30;20707;-91
2021/12/26 17:54:19;;;;;;;19.53;12.57;;;;;;;;;;4782398;30;20560;-91
2021/12/26 17:57:23;;;;;;;21.30;12.57;;;;;;;;;;4761987;30;20564;-91
2021/12/26 18:00:27;;;;;;;23.50;13.63;;;;;;;;;;4782077;30;20620;-91
2021/12/26 18:03:32;;;;;;;21.30;14.07;;;;;;;;;;4792483;29;21121;-91
2021/12/26 18:06:40;;;;;;;21.20;12.60;;;;;;;;;;4782803;30;20553;-91
2021/12/26 18:09:44;;;;;;;24.57;14.33;;;;;;;;;;4761947;30;20556;-91
2021/12/26 18:12:48;;;;;;;24.80;14.40;;;;;;;;;;4761849;30;20557;-91
2021/12/26 18:15:52;;;;;;;21.40;13.07;;;;;;;;;;4792460;29;20624;-91
2021/12/26 18:18:56;;;;;;;21.33;13.63;;;;;;;;;;4781940;30;20560;-91
2021/12/26 18:22:01;;;;;;;22.43;13.80;;;;;;;;;;4743425;30;20640;-91
2021/12/26 18:25:06;;;;;;;21.03;13.47;;;;;;;;;;4753966;30;20620;-92
2021/12/26 18:28:10;;;;;;;20.50;13.17;;;;;;;;;;4748588;30;21137;-91
2021/12/26 18:31:15;;;;;;;20.37;13.23;;;;;;;;;;4753967;30;20636;-91